TimeCST,TemperatureF,Dew PointF,Humidity,Sea Level PressureIn,VisibilityMPH,Wind Direction,Wind SpeedMPH,Gust SpeedMPH,PrecipitationIn,Events,Conditions,WindDirDegrees,DateUTC
12:13 AM,-7.6,-20.2,54,30.40,10.0,Calm,Calm,-,N/A,,Clear,0,2013-02-21 06:13:00
12:33 AM,-7.6,-18.4,59,30.41,10.0,Calm,Calm,-,N/A,,Clear,0,2013-02-21 06:33:00
12:53 AM,-7.6,-18.4,59,30.41,10.0,Calm,Calm,-,N/A,,Clear,0,2013-02-21 06:53:00
1:13 AM,-9.4,-18.4,65,30.42,10.0,Calm,Calm,-,N/A,,Clear,0,2013-02-21 07:13:00
1:33 AM,-9.4,-20.2,59,30.42,10.0,Calm,Calm,-,N/A,,Clear,0,2013-02-21 07:33:00
1:53 AM,-11.2,-18.4,70,30.43,10.0,Calm,Calm,-,N/A,,Clear,0,2013-02-21 07:53:00
2:13 AM,-9.4,-18.4,65,30.43,10.0,Calm,Calm,-,N/A,,Clear,0,2013-02-21 08:13:00
2:33 AM,-9.4,-20.2,59,30.43,10.0,Calm,Calm,-,N/A,,Clear,0,2013-02-21 08:33:00
2:53 AM,-11.2,-18.4,70,30.43,10.0,Calm,Calm,-,N/A,,Clear,0,2013-02-21 08:53:00
3:13 AM,-11.2,-18.4,70,30.43,10.0,Calm,Calm,-,N/A,,Clear,0,2013-02-21 09:13:00
3:33 AM,-11.2,-18.4,70,30.43,10.0,Calm,Calm,-,N/A,,Clear,0,2013-02-21 09:33:00
3:53 AM,-11.2,-20.2,64,30.43,10.0,Calm,Calm,-,N/A,,Clear,0,2013-02-21 09:53:00
4:13 AM,-13.0,-20.2,70,30.44,10.0,Calm,Calm,-,N/A,,Clear,0,2013-02-21 10:13:00
4:33 AM,-13.0,-18.4,77,30.45,10.0,Calm,Calm,-,N/A,,Clear,0,2013-02-21 10:33:00
4:53 AM,-14.8,-20.2,77,30.46,10.0,Calm,Calm,-,N/A,,Clear,0,2013-02-21 10:53:00
5:13 AM,-14.8,-23.8,64,30.45,10.0,Calm,Calm,-,N/A,,Clear,0,2013-02-21 11:13:00
5:53 AM,-4.0,-9.4,78,30.44,10.0,Calm,Calm,-,N/A,,Clear,0,2013-02-21 11:53:00
6:13 AM,-5.8,-11.2,77,30.44,10.0,Calm,Calm,-,N/A,,Clear,0,2013-02-21 12:13:00
6:33 AM,-4.0,-11.2,71,30.44,10.0,Calm,Calm,-,N/A,,Clear,0,2013-02-21 12:33:00
7:13 AM,-9.4,-14.8,77,30.43,10.0,Calm,Calm,-,N/A,,Clear,0,2013-02-21 13:13:00
7:33 AM,-7.6,-13.0,77,30.42,10.0,Calm,Calm,-,N/A,,Clear,0,2013-02-21 13:33:00
7:53 AM,-0.4,-7.6,72,30.40,10.0,NNE,4.6,-,N/A,,Clear,20,2013-02-21 13:53:00
8:13 AM,5.0,-7.6,56,30.38,10.0,NE,8.1,-,N/A,,Clear,40,2013-02-21 14:13:00
8:33 AM,6.8,-7.6,52,30.36,10.0,NNE,6.9,-,N/A,,Clear,30,2013-02-21 14:33:00
8:53 AM,10.4,-5.8,48,30.38,10.0,NE,8.1,-,N/A,,Clear,50,2013-02-21 14:53:00
9:13 AM,10.4,-2.2,57,30.40,10.0,NE,4.6,-,N/A,,Scattered Clouds,50,2013-02-21 15:13:00
9:33 AM,12.2,3.2,67,30.45,3.0,East,6.9,-,N/A,Snow,Light Snow,80,2013-02-21 15:33:00
9:53 AM,12.2,3.2,67,30.47,1.8,East,5.8,-,N/A,Snow,Light Snow,80,2013-02-21 15:53:00
10:13 AM,14.0,6.8,73,30.47,1.5,NE,4.6,-,N/A,Snow,Light Snow,50,2013-02-21 16:13:00
10:33 AM,15.8,6.8,68,30.45,2.0,ENE,6.9,-,N/A,Snow,Light Snow,70,2013-02-21 16:33:00
10:54 AM,15.8,8.6,73,30.44,2.5,East,6.9,-,N/A,Snow,Light Snow,90,2013-02-21 16:54:00
11:13 AM,15.8,8.6,73,30.43,2.0,ENE,8.1,-,N/A,Snow,Light Snow,60,2013-02-21 17:13:00
11:33 AM,15.8,8.6,73,30.42,2.0,ENE,10.4,-,N/A,Snow,Light Snow,70,2013-02-21 17:33:00
11:53 AM,15.8,8.6,73,30.42,2.5,East,9.2,-,N/A,Snow,Light Snow,80,2013-02-21 17:53:00
12:13 PM,17.6,8.6,68,30.43,3.0,ENE,6.9,-,N/A,Snow,Light Snow,70,2013-02-21 18:13:00
12:33 PM,17.6,8.6,68,30.42,2.5,ENE,8.1,-,N/A,Snow,Light Snow,60,2013-02-21 18:33:00
12:53 PM,17.6,8.6,68,30.41,2.5,East,9.2,-,N/A,Snow,Light Snow,80,2013-02-21 18:53:00
1:13 PM,17.6,8.6,68,30.40,4.0,ENE,6.9,-,N/A,Snow,Light Snow,70,2013-02-21 19:13:00
1:33 PM,17.6,8.6,68,30.40,4.0,NE,8.1,-,N/A,Snow,Light Snow,50,2013-02-21 19:33:00
1:53 PM,17.6,10.4,73,30.39,4.0,NE,8.1,-,N/A,Snow,Light Snow,50,2013-02-21 19:53:00
2:13 PM,15.8,10.4,79,30.38,5.0,NE,8.1,-,N/A,Snow,Light Snow,40,2013-02-21 20:13:00
2:33 PM,15.8,10.4,79,30.38,5.0,ENE,9.2,-,N/A,Snow,Light Snow,70,2013-02-21 20:33:00
2:53 PM,15.8,10.4,79,30.37,5.0,ENE,9.2,-,N/A,Snow,Light Snow,60,2013-02-21 20:53:00
3:13 PM,15.8,10.4,79,30.36,7.0,ENE,10.4,-,N/A,Snow,Light Snow,60,2013-02-21 21:13:00
3:33 PM,15.8,10.4,79,30.35,7.0,ENE,9.2,19.6,N/A,Snow,Light Snow,60,2013-02-21 21:33:00
3:55 PM,15.8,10.4,79,30.35,7.0,NE,9.2,-,N/A,Snow,Light Snow,50,2013-02-21 21:55:00
4:34 PM,15.8,10.4,79,30.35,5.0,ENE,5.8,-,N/A,Snow,Light Snow,70,2013-02-21 22:34:00
4:53 PM,15.8,12.2,86,30.35,7.0,East,6.9,-,N/A,Snow,Light Snow,80,2013-02-21 22:53:00
5:13 PM,15.8,12.2,86,30.35,7.0,ENE,10.4,-,N/A,,Overcast,60,2013-02-21 23:13:00
5:33 PM,15.8,12.2,86,30.35,10.0,ENE,6.9,-,N/A,,Overcast,70,2013-02-21 23:33:00
5:53 PM,15.8,12.2,86,30.35,10.0,ENE,6.9,-,N/A,,Overcast,70,2013-02-21 23:53:00
6:13 PM,17.6,14.0,86,30.33,10.0,ENE,9.2,17.3,N/A,,Overcast,70,2013-02-22 00:13:00
6:33 PM,17.6,14.0,86,30.33,10.0,ENE,8.1,16.1,N/A,,Overcast,70,2013-02-22 00:33:00
6:53 PM,17.6,14.0,86,30.32,10.0,ENE,9.2,-,N/A,,Overcast,60,2013-02-22 00:53:00
7:13 PM,17.6,15.8,93,30.30,10.0,ENE,9.2,-,N/A,,Overcast,60,2013-02-22 01:13:00
7:33 PM,17.6,15.8,93,30.30,10.0,ENE,10.4,16.1,N/A,,Overcast,60,2013-02-22 01:33:00
7:53 PM,17.6,15.8,93,30.29,10.0,ENE,6.9,-,N/A,,Overcast,60,2013-02-22 01:53:00
8:13 PM,19.4,15.8,86,30.28,10.0,ENE,11.5,-,N/A,,Overcast,70,2013-02-22 02:13:00
8:33 PM,19.4,17.6,93,30.27,10.0,ENE,10.4,-,N/A,,Overcast,70,2013-02-22 02:33:00
8:53 PM,19.4,15.8,86,30.26,10.0,ENE,10.4,18.4,N/A,,Overcast,70,2013-02-22 02:53:00
9:13 PM,19.4,17.6,93,30.26,7.0,ENE,11.5,19.6,N/A,,Overcast,70,2013-02-22 03:13:00
9:33 PM,19.4,17.6,93,30.25,7.0,ENE,10.4,17.3,N/A,,Overcast,70,2013-02-22 03:33:00
10:13 PM,19.4,17.6,93,30.23,4.0,ENE,11.5,19.6,N/A,,Overcast,70,2013-02-22 04:13:00
10:33 PM,19.4,17.6,93,30.21,4.0,ENE,8.1,19.6,N/A,,Overcast,60,2013-02-22 04:33:00
10:53 PM,19.4,17.6,93,30.20,7.0,ENE,10.4,-,N/A,,Overcast,70,2013-02-22 04:53:00
11:13 PM,19.4,17.6,93,30.19,10.0,East,11.5,19.6,N/A,,Overcast,80,2013-02-22 05:13:00
11:33 PM,21.2,17.6,86,30.18,10.0,ENE,6.9,-,N/A,,Overcast,60,2013-02-22 05:33:00
11:53 PM,21.2,17.6,86,30.17,10.0,ENE,9.2,-,N/A,,Overcast,60,2013-02-22 05:53:00